createdAt,value
2022-09-20T00:00:03.059Z,16.5
2022-09-20T00:10:03.158Z,16.5
2022-09-20T00:20:03.025Z,16.5
2022-09-20T00:30:03.169Z,16.5
2022-09-20T00:40:03.053Z,16.5
2022-09-20T00:50:03.143Z,16.5
2022-09-20T01:00:03.218Z,16.5
2022-09-20T01:10:03.161Z,16.5
2022-09-20T01:20:03.241Z,16.5
2022-09-20T01:30:03.144Z,16.5
2022-09-20T01:40:03.288Z,16.5
2022-09-20T01:50:03.124Z,17
2022-09-20T02:00:03.220Z,16.5
2022-09-20T02:10:03.157Z,17
2022-09-20T02:20:03.223Z,17
2022-09-20T02:30:03.335Z,17
2022-09-20T02:40:03.275Z,17
2022-09-20T02:50:03.354Z,17
2022-09-20T03:00:03.218Z,16.5
2022-09-20T03:10:03.361Z,16.5
2022-09-20T03:20:03.213Z,16.5
2022-09-20T03:30:03.340Z,16.5
2022-09-20T03:40:03.287Z,16.5
2022-09-20T03:50:03.347Z,16.5
2022-09-20T04:00:03.408Z,16.5
2022-09-20T04:10:03.336Z,16.5
2022-09-20T04:20:03.405Z,16.5
2022-09-20T04:30:03.351Z,16.5
2022-09-20T04:40:03.404Z,16.5
2022-09-20T04:50:03.330Z,16.5
2022-09-20T05:00:03.400Z,16.5
2022-09-20T05:10:03.340Z,16.5
2022-09-20T05:20:03.403Z,16.5
2022-09-20T05:30:04.398Z,16.5
2022-09-20T05:40:03.415Z,16.5
2022-09-20T05:50:03.501Z,16.5
2022-09-20T06:00:03.378Z,16.5
2022-09-20T06:10:03.508Z,16.5
2022-09-20T06:20:03.400Z,16.5
2022-09-20T06:30:03.516Z,16.5
2022-09-20T06:40:03.635Z,16.5
2022-09-20T06:50:03.497Z,17
2022-09-20T07:00:03.592Z,17
2022-09-20T07:10:03.490Z,17.5
2022-09-20T07:20:03.586Z,18
2022-09-20T07:30:03.495Z,17.5
2022-09-20T07:40:03.574Z,17.5
2022-09-20T07:50:03.497Z,17.5
2022-09-20T08:00:03.571Z,18
2022-09-20T08:10:03.697Z,18
2022-09-20T08:20:03.554Z,19
2022-09-20T08:30:03.672Z,20
2022-09-20T08:40:03.656Z,20
2022-09-20T08:50:11.472Z,20
2022-09-20T09:00:03.562Z,19.5
2022-09-20T09:10:03.706Z,20
2022-09-20T09:20:03.749Z,20.5
2022-09-20T09:30:03.694Z,20
2022-09-20T09:40:03.823Z,21
2022-09-20T09:50:06.203Z,22
2022-09-20T10:00:07.240Z,22
2022-09-20T10:10:03.672Z,21.5
2022-09-20T10:20:03.767Z,22
2022-09-20T10:30:03.695Z,23
2022-09-20T10:40:03.835Z,24
2022-09-20T10:50:03.667Z,24
2022-09-20T11:00:03.736Z,24
2022-09-20T11:10:03.906Z,24
2022-09-20T11:20:07.351Z,24
2022-09-20T11:30:03.865Z,24
2022-09-20T11:40:03.798Z,23
2022-09-20T11:50:03.865Z,22.5
2022-09-20T12:00:03.761Z,22.5
2022-09-20T12:10:03.949Z,23
2022-09-20T12:20:03.748Z,22
2022-09-20T12:30:03.888Z,22
2022-09-20T12:40:03.948Z,21.5
2022-09-20T12:50:03.837Z,21.5
2022-09-20T13:00:03.939Z,22
2022-09-20T13:10:03.854Z,21.5
2022-09-20T13:20:03.922Z,21
2022-09-20T13:30:03.898Z,21
2022-09-20T13:40:04.025Z,21
2022-09-20T13:50:03.972Z,21
2022-09-20T14:00:03.920Z,21
2022-09-20T14:10:04.050Z,21
2022-09-20T14:20:03.891Z,21
2022-09-20T14:30:04.023Z,21
2022-09-20T14:40:03.986Z,21
2022-09-20T14:50:04.091Z,21
2022-09-20T15:00:03.895Z,22
2022-09-20T15:10:04.033Z,22
2022-09-20T15:20:03.909Z,22
2022-09-20T15:30:04.041Z,21.5
2022-09-20T15:40:04.225Z,21.5
2022-09-20T15:50:04.041Z,21
2022-09-20T16:00:04.114Z,21
2022-09-20T16:10:04.077Z,21
2022-09-20T16:20:04.147Z,20.5
2022-09-20T16:30:04.140Z,20
2022-09-20T16:40:04.190Z,20
2022-09-20T16:50:04.331Z,20
2022-09-20T17:00:04.095Z,20
2022-09-20T17:10:04.218Z,19.5
2022-09-20T17:20:04.123Z,19.5
2022-09-20T17:30:04.235Z,19.5
2022-09-20T17:40:04.184Z,19.5
2022-09-20T17:50:04.201Z,19.5
2022-09-20T18:00:04.098Z,19
2022-09-20T18:10:04.220Z,18.5
2022-09-20T18:20:04.077Z,18.5
2022-09-20T18:30:04.196Z,18.5
2022-09-20T18:40:04.307Z,18.5
2022-09-20T18:50:04.185Z,18.5
2022-09-20T19:00:04.401Z,18.5
2022-09-20T19:10:04.244Z,18.5
2022-09-20T19:20:04.271Z,18.5
2022-09-20T19:30:04.187Z,18.5
2022-09-20T19:40:04.348Z,19
2022-09-20T19:50:04.388Z,19
2022-09-20T20:00:08.759Z,18.5
2022-09-20T20:10:04.390Z,19
2022-09-20T20:20:04.245Z,19
2022-09-20T20:30:04.385Z,19
2022-09-20T20:40:04.278Z,19
2022-09-20T20:50:04.441Z,19
2022-09-20T21:00:04.253Z,19
2022-09-20T21:10:04.394Z,19
2022-09-20T21:20:04.440Z,18.5
2022-09-20T21:30:04.376Z,18.5
2022-09-20T21:40:04.479Z,18.5
2022-09-20T21:50:04.426Z,18.5
2022-09-20T22:00:04.429Z,18.5
2022-09-20T22:10:04.350Z,18.5
2022-09-20T22:20:04.424Z,18.5
2022-09-20T22:30:05.155Z,18
2022-09-20T22:40:04.470Z,17.5
2022-09-20T22:50:04.546Z,17.5
2022-09-20T23:00:04.419Z,18
2022-09-20T23:10:04.553Z,18
2022-09-20T23:20:04.429Z,18
2022-09-20T23:30:04.586Z,18
2022-09-20T23:40:04.437Z,18
2022-09-20T23:50:04.520Z,18
